sensor_id;sensor_type;location;lat;lon;timestamp;temperature;humidity
21787;DHT22;11055;50.870;4.316;2023-11-19T00:00:27;13.30;99.90
21787;DHT22;11055;50.870;4.316;2023-11-19T00:02:53;13.30;99.90
21787;DHT22;11055;50.870;4.316;2023-11-19T00:05:19;13.30;99.90
21787;DHT22;11055;50.870;4.316;2023-11-19T00:07:45;13.30;99.90
21787;DHT22;11055;50.870;4.316;2023-11-19T00:10:12;13.30;99.90
21787;DHT22;11055;50.870;4.316;2023-11-19T00:12:39;13.20;99.90
21787;DHT22;11055;50.870;4.316;2023-11-19T00:15:05;13.20;99.90
21787;DHT22;11055;50.870;4.316;2023-11-19T00:17:32;13.30;99.90
21787;DHT22;11055;50.870;4.316;2023-11-19T00:19:58;13.30;99.90
21787;DHT22;11055;50.870;4.316;2023-11-19T00:22:24;13.30;99.90
21787;DHT22;11055;50.870;4.316;2023-11-19T00:24:51;13.30;99.90
21787;DHT22;11055;50.870;4.316;2023-11-19T00:27:16;13.30;99.90
21787;DHT22;11055;50.870;4.316;2023-11-19T00:29:43;13.30;99.90
21787;DHT22;11055;50.870;4.316;2023-11-19T00:32:10;13.30;99.90
21787;DHT22;11055;50.870;4.316;2023-11-19T00:34:38;13.30;99.90
21787;DHT22;11055;50.870;4.316;2023-11-19T00:37:04;13.30;99.90
21787;DHT22;11055;50.870;4.316;2023-11-19T00:39:29;13.30;99.90
21787;DHT22;11055;50.870;4.316;2023-11-19T00:41:55;13.30;99.90
21787;DHT22;11055;50.870;4.316;2023-11-19T00:44:21;13.30;99.90
21787;DHT22;11055;50.870;4.316;2023-11-19T00:46:47;13.40;99.90
21787;DHT22;11055;50.870;4.316;2023-11-19T00:49:12;13.30;99.90
21787;DHT22;11055;50.870;4.316;2023-11-19T00:51:38;13.30;99.90
21787;DHT22;11055;50.870;4.316;2023-11-19T00:54:04;13.30;99.90
21787;DHT22;11055;50.870;4.316;2023-11-19T00:56:30;13.30;99.90
21787;DHT22;11055;50.870;4.316;2023-11-19T00:58:55;13.30;99.90
21787;DHT22;11055;50.870;4.316;2023-11-19T01:01:21;13.30;99.90
21787;DHT22;11055;50.870;4.316;2023-11-19T01:03:47;13.30;99.90
21787;DHT22;11055;50.870;4.316;2023-11-19T01:06:13;13.40;99.90
21787;DHT22;11055;50.870;4.316;2023-11-19T01:08:39;13.30;99.90
21787;DHT22;11055;50.870;4.316;2023-11-19T01:11:05;13.30;99.90
21787;DHT22;11055;50.870;4.316;2023-11-19T01:13:30;13.30;99.90
21787;DHT22;11055;50.870;4.316;2023-11-19T01:15:56;13.30;99.90
21787;DHT22;11055;50.870;4.316;2023-11-19T01:18:22;13.30;99.90
21787;DHT22;11055;50.870;4.316;2023-11-19T01:20:47;13.30;99.90
21787;DHT22;11055;50.870;4.316;2023-11-19T01:23:13;13.30;99.90
21787;DHT22;11055;50.870;4.316;2023-11-19T01:25:39;13.30;99.90
21787;DHT22;11055;50.870;4.316;2023-11-19T01:28:04;13.20;99.90
21787;DHT22;11055;50.870;4.316;2023-11-19T01:30:30;13.20;99.90
21787;DHT22;11055;50.870;4.316;2023-11-19T01:32:56;13.20;99.90
21787;DHT22;11055;50.870;4.316;2023-11-19T01:35:21;13.30;99.90
21787;DHT22;11055;50.870;4.316;2023-11-19T01:37:48;13.30;99.90
21787;DHT22;11055;50.870;4.316;2023-11-19T01:40:20;13.30;99.90
21787;DHT22;11055;50.870;4.316;2023-11-19T01:42:46;13.20;99.90
21787;DHT22;11055;50.870;4.316;2023-11-19T01:45:22;13.20;99.90
21787;DHT22;11055;50.870;4.316;2023-11-19T01:47:50;13.20;99.90
21787;DHT22;11055;50.870;4.316;2023-11-19T01:50:17;13.10;99.90
21787;DHT22;11055;50.870;4.316;2023-11-19T01:52:42;13.10;99.90
21787;DHT22;11055;50.870;4.316;2023-11-19T01:55:10;13.10;99.90
21787;DHT22;11055;50.870;4.316;2023-11-19T01:57:37;13.10;99.90
21787;DHT22;11055;50.870;4.316;2023-11-19T02:00:06;13.10;99.90
21787;DHT22;11055;50.870;4.316;2023-11-19T02:02:31;13.10;99.90
21787;DHT22;11055;50.870;4.316;2023-11-19T02:04:57;13.00;99.90
21787;DHT22;11055;50.870;4.316;2023-11-19T02:07:24;13.00;99.90
21787;DHT22;11055;50.870;4.316;2023-11-19T02:09:49;13.00;99.90
21787;DHT22;11055;50.870;4.316;2023-11-19T02:12:15;12.90;99.90
21787;DHT22;11055;50.870;4.316;2023-11-19T02:14:41;12.90;99.90
21787;DHT22;11055;50.870;4.316;2023-11-19T02:17:06;12.90;99.90
21787;DHT22;11055;50.870;4.316;2023-11-19T02:19:32;13.00;99.90
21787;DHT22;11055;50.870;4.316;2023-11-19T02:21:58;13.00;99.90
21787;DHT22;11055;50.870;4.316;2023-11-19T02:24:26;13.00;99.90
21787;DHT22;11055;50.870;4.316;2023-11-19T02:27:10;12.90;99.90
21787;DHT22;11055;50.870;4.316;2023-11-19T02:29:36;12.90;99.90
21787;DHT22;11055;50.870;4.316;2023-11-19T02:32:02;12.90;99.90
21787;DHT22;11055;50.870;4.316;2023-11-19T02:34:28;12.90;99.90
21787;DHT22;11055;50.870;4.316;2023-11-19T02:36:54;12.90;99.90
21787;DHT22;11055;50.870;4.316;2023-11-19T02:39:20;13.00;99.90
21787;DHT22;11055;50.870;4.316;2023-11-19T02:41:47;13.00;99.90
21787;DHT22;11055;50.870;4.316;2023-11-19T02:44:16;13.00;99.90
21787;DHT22;11055;50.870;4.316;2023-11-19T02:46:42;13.00;99.90
21787;DHT22;11055;50.870;4.316;2023-11-19T02:49:08;13.00;99.90
21787;DHT22;11055;50.870;4.316;2023-11-19T02:51:33;12.90;99.90
21787;DHT22;11055;50.870;4.316;2023-11-19T02:54:00;12.90;99.90
21787;DHT22;11055;50.870;4.316;2023-11-19T02:56:29;12.90;99.90
21787;DHT22;11055;50.870;4.316;2023-11-19T02:59:00;12.90;99.90
21787;DHT22;11055;50.870;4.316;2023-11-19T03:01:33;12.80;99.90
21787;DHT22;11055;50.870;4.316;2023-11-19T03:04:01;12.80;99.90
21787;DHT22;11055;50.870;4.316;2023-11-19T03:06:27;12.80;99.90
21787;DHT22;11055;50.870;4.316;2023-11-19T03:08:54;12.80;99.90
21787;DHT22;11055;50.870;4.316;2023-11-19T03:11:20;12.70;99.90
21787;DHT22;11055;50.870;4.316;2023-11-19T03:13:46;12.70;99.90
21787;DHT22;11055;50.870;4.316;2023-11-19T03:16:12;12.60;99.90
21787;DHT22;11055;50.870;4.316;2023-11-19T03:18:38;12.60;99.90
21787;DHT22;11055;50.870;4.316;2023-11-19T03:21:06;12.60;99.90
21787;DHT22;11055;50.870;4.316;2023-11-19T03:23:33;12.60;99.90
21787;DHT22;11055;50.870;4.316;2023-11-19T03:25:58;12.60;99.90
21787;DHT22;11055;50.870;4.316;2023-11-19T03:28:24;12.50;99.90
21787;DHT22;11055;50.870;4.316;2023-11-19T03:30:50;12.50;99.90
21787;DHT22;11055;50.870;4.316;2023-11-19T03:33:15;12.50;99.90
21787;DHT22;11055;50.870;4.316;2023-11-19T03:35:42;12.50;99.90
21787;DHT22;11055;50.870;4.316;2023-11-19T03:38:07;12.50;99.90
21787;DHT22;11055;50.870;4.316;2023-11-19T03:40:33;12.40;99.90
21787;DHT22;11055;50.870;4.316;2023-11-19T03:42:58;12.50;99.90
21787;DHT22;11055;50.870;4.316;2023-11-19T03:45:24;12.50;99.90
21787;DHT22;11055;50.870;4.316;2023-11-19T03:47:51;12.40;99.90
21787;DHT22;11055;50.870;4.316;2023-11-19T03:50:17;12.40;99.90
21787;DHT22;11055;50.870;4.316;2023-11-19T03:53:01;12.40;99.90
21787;DHT22;11055;50.870;4.316;2023-11-19T03:55:28;12.40;99.90
21787;DHT22;11055;50.870;4.316;2023-11-19T03:57:57;12.30;99.90
21787;DHT22;11055;50.870;4.316;2023-11-19T04:00:23;12.30;99.90
21787;DHT22;11055;50.870;4.316;2023-11-19T04:02:48;12.30;99.90
21787;DHT22;11055;50.870;4.316;2023-11-19T04:05:14;12.30;99.90
21787;DHT22;11055;50.870;4.316;2023-11-19T04:07:40;12.30;99.90
21787;DHT22;11055;50.870;4.316;2023-11-19T04:10:06;12.30;99.90
21787;DHT22;11055;50.870;4.316;2023-11-19T04:12:32;12.30;99.90
21787;DHT22;11055;50.870;4.316;2023-11-19T04:14:57;12.30;99.90
21787;DHT22;11055;50.870;4.316;2023-11-19T04:17:23;12.20;99.90
21787;DHT22;11055;50.870;4.316;2023-11-19T04:19:49;12.30;99.90
21787;DHT22;11055;50.870;4.316;2023-11-19T04:22:15;12.20;99.90
21787;DHT22;11055;50.870;4.316;2023-11-19T04:24:40;12.20;99.90
21787;DHT22;11055;50.870;4.316;2023-11-19T04:27:07;12.20;99.90
21787;DHT22;11055;50.870;4.316;2023-11-19T04:29:32;12.20;99.90
21787;DHT22;11055;50.870;4.316;2023-11-19T04:31:58;12.30;99.90
21787;DHT22;11055;50.870;4.316;2023-11-19T04:34:24;12.30;99.90
21787;DHT22;11055;50.870;4.316;2023-11-19T04:36:51;12.20;99.90
21787;DHT22;11055;50.870;4.316;2023-11-19T04:39:16;12.10;99.90
21787;DHT22;11055;50.870;4.316;2023-11-19T04:41:50;12.10;99.90
21787;DHT22;11055;50.870;4.316;2023-11-19T04:44:17;12.20;99.90
21787;DHT22;11055;50.870;4.316;2023-11-19T04:46:43;12.20;99.90
21787;DHT22;11055;50.870;4.316;2023-11-19T04:49:10;12.10;99.90
21787;DHT22;11055;50.870;4.316;2023-11-19T04:51:42;12.10;99.90
21787;DHT22;11055;50.870;4.316;2023-11-19T04:54:10;12.10;99.90
21787;DHT22;11055;50.870;4.316;2023-11-19T04:56:36;12.10;99.90
21787;DHT22;11055;50.870;4.316;2023-11-19T04:59:06;12.10;99.90
21787;DHT22;11055;50.870;4.316;2023-11-19T05:01:35;12.10;99.90
21787;DHT22;11055;50.870;4.316;2023-11-19T05:04:01;12.10;99.90
21787;DHT22;11055;50.870;4.316;2023-11-19T05:06:30;12.10;99.90
21787;DHT22;11055;50.870;4.316;2023-11-19T05:08:58;12.10;99.90
21787;DHT22;11055;50.870;4.316;2023-11-19T05:11:27;12.10;99.90
21787;DHT22;11055;50.870;4.316;2023-11-19T05:13:54;12.10;99.90
21787;DHT22;11055;50.870;4.316;2023-11-19T05:16:20;12.00;99.90
21787;DHT22;11055;50.870;4.316;2023-11-19T05:18:46;12.00;99.90
21787;DHT22;11055;50.870;4.316;2023-11-19T05:21:13;12.00;99.90
21787;DHT22;11055;50.870;4.316;2023-11-19T05:23:39;12.00;99.90
21787;DHT22;11055;50.870;4.316;2023-11-19T05:26:07;11.90;99.90
21787;DHT22;11055;50.870;4.316;2023-11-19T05:28:32;11.90;99.90
21787;DHT22;11055;50.870;4.316;2023-11-19T05:30:58;12.00;99.90
21787;DHT22;11055;50.870;4.316;2023-11-19T05:33:24;12.00;99.90
21787;DHT22;11055;50.870;4.316;2023-11-19T05:35:49;11.90;99.90
21787;DHT22;11055;50.870;4.316;2023-11-19T05:38:15;12.00;99.90
21787;DHT22;11055;50.870;4.316;2023-11-19T05:40:43;11.90;99.90
21787;DHT22;11055;50.870;4.316;2023-11-19T05:43:09;12.00;99.90
21787;DHT22;11055;50.870;4.316;2023-11-19T05:45:35;11.90;99.90
21787;DHT22;11055;50.870;4.316;2023-11-19T05:48:01;11.90;99.90
21787;DHT22;11055;50.870;4.316;2023-11-19T05:50:29;11.90;99.90
21787;DHT22;11055;50.870;4.316;2023-11-19T05:52:55;12.00;99.90
21787;DHT22;11055;50.870;4.316;2023-11-19T05:55:21;12.00;99.90
21787;DHT22;11055;50.870;4.316;2023-11-19T05:57:48;12.00;99.90
21787;DHT22;11055;50.870;4.316;2023-11-19T06:00:14;12.00;99.90
21787;DHT22;11055;50.870;4.316;2023-11-19T06:02:40;12.00;99.90
21787;DHT22;11055;50.870;4.316;2023-11-19T06:05:06;11.90;99.90
21787;DHT22;11055;50.870;4.316;2023-11-19T06:07:33;11.90;99.90
21787;DHT22;11055;50.870;4.316;2023-11-19T06:09:59;12.00;99.90
21787;DHT22;11055;50.870;4.316;2023-11-19T06:12:24;11.90;99.90
21787;DHT22;11055;50.870;4.316;2023-11-19T06:14:50;12.00;99.90
21787;DHT22;11055;50.870;4.316;2023-11-19T06:17:16;12.00;99.90
21787;DHT22;11055;50.870;4.316;2023-11-19T06:19:41;12.00;99.90
21787;DHT22;11055;50.870;4.316;2023-11-19T06:22:07;11.90;99.90
21787;DHT22;11055;50.870;4.316;2023-11-19T06:24:32;11.90;99.90
21787;DHT22;11055;50.870;4.316;2023-11-19T06:26:58;11.80;99.90
21787;DHT22;11055;50.870;4.316;2023-11-19T06:29:24;11.80;99.90
21787;DHT22;11055;50.870;4.316;2023-11-19T06:31:50;11.80;99.90
21787;DHT22;11055;50.870;4.316;2023-11-19T06:34:15;11.80;99.90
21787;DHT22;11055;50.870;4.316;2023-11-19T06:36:41;11.70;99.90
21787;DHT22;11055;50.870;4.316;2023-11-19T06:39:09;11.70;99.90
21787;DHT22;11055;50.870;4.316;2023-11-19T06:41:36;11.70;99.90
21787;DHT22;11055;50.870;4.316;2023-11-19T06:44:06;11.70;99.90
21787;DHT22;11055;50.870;4.316;2023-11-19T06:46:31;11.70;99.90
21787;DHT22;11055;50.870;4.316;2023-11-19T06:48:57;11.70;99.90
21787;DHT22;11055;50.870;4.316;2023-11-19T06:51:24;11.70;99.90
21787;DHT22;11055;50.870;4.316;2023-11-19T06:53:50;11.60;99.90
21787;DHT22;11055;50.870;4.316;2023-11-19T06:58:46;11.70;99.90
21787;DHT22;11055;50.870;4.316;2023-11-19T07:01:13;11.60;99.90
21787;DHT22;11055;50.870;4.316;2023-11-19T07:03:39;11.60;99.90
21787;DHT22;11055;50.870;4.316;2023-11-19T07:06:05;11.60;99.90
21787;DHT22;11055;50.870;4.316;2023-11-19T07:08:31;11.60;99.90
21787;DHT22;11055;50.870;4.316;2023-11-19T07:10:56;11.60;99.90
21787;DHT22;11055;50.870;4.316;2023-11-19T07:13:22;11.70;99.90
21787;DHT22;11055;50.870;4.316;2023-11-19T07:15:48;11.70;99.90
21787;DHT22;11055;50.870;4.316;2023-11-19T07:18:13;11.70;99.90
21787;DHT22;11055;50.870;4.316;2023-11-19T07:20:39;11.70;99.90
21787;DHT22;11055;50.870;4.316;2023-11-19T07:23:05;11.80;99.90
21787;DHT22;11055;50.870;4.316;2023-11-19T07:25:31;11.80;99.90
21787;DHT22;11055;50.870;4.316;2023-11-19T07:27:57;11.80;99.90
21787;DHT22;11055;50.870;4.316;2023-11-19T07:30:22;11.70;99.90
21787;DHT22;11055;50.870;4.316;2023-11-19T07:32:48;11.70;99.90
21787;DHT22;11055;50.870;4.316;2023-11-19T07:35:14;11.70;99.90
21787;DHT22;11055;50.870;4.316;2023-11-19T07:37:41;11.70;99.90
21787;DHT22;11055;50.870;4.316;2023-11-19T07:40:08;11.70;99.90
21787;DHT22;11055;50.870;4.316;2023-11-19T07:42:34;11.70;99.90
21787;DHT22;11055;50.870;4.316;2023-11-19T07:44:59;11.70;99.90
21787;DHT22;11055;50.870;4.316;2023-11-19T07:47:25;11.70;99.90
21787;DHT22;11055;50.870;4.316;2023-11-19T07:49:52;11.60;99.90
21787;DHT22;11055;50.870;4.316;2023-11-19T07:52:19;11.60;99.90
21787;DHT22;11055;50.870;4.316;2023-11-19T07:54:45;11.60;99.90
21787;DHT22;11055;50.870;4.316;2023-11-19T07:57:10;11.70;99.90
21787;DHT22;11055;50.870;4.316;2023-11-19T07:59:36;11.70;99.90
21787;DHT22;11055;50.870;4.316;2023-11-19T08:02:02;11.70;99.90
21787;DHT22;11055;50.870;4.316;2023-11-19T08:04:29;11.70;99.90
21787;DHT22;11055;50.870;4.316;2023-11-19T08:06:54;11.60;99.90
21787;DHT22;11055;50.870;4.316;2023-11-19T08:09:20;11.60;99.90
21787;DHT22;11055;50.870;4.316;2023-11-19T08:11:46;11.60;99.90
21787;DHT22;11055;50.870;4.316;2023-11-19T08:14:12;11.70;99.90
21787;DHT22;11055;50.870;4.316;2023-11-19T08:16:39;11.80;99.90
21787;DHT22;11055;50.870;4.316;2023-11-19T08:19:05;11.80;99.90
21787;DHT22;11055;50.870;4.316;2023-11-19T08:21:31;11.80;99.90
21787;DHT22;11055;50.870;4.316;2023-11-19T08:23:57;11.90;99.90
21787;DHT22;11055;50.870;4.316;2023-11-19T08:26:23;11.90;99.90
21787;DHT22;11055;50.870;4.316;2023-11-19T08:28:48;11.90;99.90
21787;DHT22;11055;50.870;4.316;2023-11-19T08:31:14;11.90;99.90
21787;DHT22;11055;50.870;4.316;2023-11-19T08:33:39;11.90;99.90
21787;DHT22;11055;50.870;4.316;2023-11-19T08:36:05;11.90;99.90
21787;DHT22;11055;50.870;4.316;2023-11-19T08:38:31;11.90;99.90
21787;DHT22;11055;50.870;4.316;2023-11-19T08:40:57;12.00;99.90
21787;DHT22;11055;50.870;4.316;2023-11-19T08:43:25;11.90;99.90
21787;DHT22;11055;50.870;4.316;2023-11-19T08:45:51;12.00;99.90
21787;DHT22;11055;50.870;4.316;2023-11-19T08:48:17;12.00;99.90
21787;DHT22;11055;50.870;4.316;2023-11-19T08:50:42;11.90;99.90
21787;DHT22;11055;50.870;4.316;2023-11-19T08:53:08;11.90;99.90
21787;DHT22;11055;50.870;4.316;2023-11-19T08:55:34;11.90;99.90
21787;DHT22;11055;50.870;4.316;2023-11-19T08:57:59;11.90;99.90
21787;DHT22;11055;50.870;4.316;2023-11-19T09:00:25;11.90;99.90
21787;DHT22;11055;50.870;4.316;2023-11-19T09:02:51;12.00;99.90
21787;DHT22;11055;50.870;4.316;2023-11-19T09:05:16;12.10;99.90
21787;DHT22;11055;50.870;4.316;2023-11-19T09:07:42;12.00;99.90
21787;DHT22;11055;50.870;4.316;2023-11-19T09:10:08;12.00;99.90
21787;DHT22;11055;50.870;4.316;2023-11-19T09:12:34;11.90;99.90
21787;DHT22;11055;50.870;4.316;2023-11-19T09:15:00;11.90;99.90
21787;DHT22;11055;50.870;4.316;2023-11-19T09:17:26;11.90;99.90
21787;DHT22;11055;50.870;4.316;2023-11-19T09:19:51;11.90;99.90
21787;DHT22;11055;50.870;4.316;2023-11-19T09:22:17;11.90;99.90
21787;DHT22;11055;50.870;4.316;2023-11-19T09:24:43;11.90;99.90
21787;DHT22;11055;50.870;4.316;2023-11-19T09:27:10;12.00;99.90
21787;DHT22;11055;50.870;4.316;2023-11-19T09:29:36;12.00;99.90
21787;DHT22;11055;50.870;4.316;2023-11-19T09:32:01;12.10;99.90
21787;DHT22;11055;50.870;4.316;2023-11-19T09:34:27;12.00;99.90
21787;DHT22;11055;50.870;4.316;2023-11-19T09:36:53;12.00;99.90
21787;DHT22;11055;50.870;4.316;2023-11-19T09:39:19;12.00;99.90
21787;DHT22;11055;50.870;4.316;2023-11-19T09:41:46;12.10;99.90
21787;DHT22;11055;50.870;4.316;2023-11-19T09:44:12;12.10;99.90
21787;DHT22;11055;50.870;4.316;2023-11-19T09:46:39;12.10;99.90
21787;DHT22;11055;50.870;4.316;2023-11-19T09:49:07;12.30;99.90
21787;DHT22;11055;50.870;4.316;2023-11-19T09:51:35;12.40;99.90
21787;DHT22;11055;50.870;4.316;2023-11-19T09:54:01;12.60;99.90
21787;DHT22;11055;50.870;4.316;2023-11-19T09:56:29;12.50;99.90
21787;DHT22;11055;50.870;4.316;2023-11-19T09:58:55;12.50;99.90
21787;DHT22;11055;50.870;4.316;2023-11-19T10:01:21;12.40;99.90
21787;DHT22;11055;50.870;4.316;2023-11-19T10:03:50;12.40;99.90
21787;DHT22;11055;50.870;4.316;2023-11-19T10:06:17;12.40;99.90
21787;DHT22;11055;50.870;4.316;2023-11-19T10:08:44;12.50;99.90
21787;DHT22;11055;50.870;4.316;2023-11-19T10:11:10;12.70;99.90
21787;DHT22;11055;50.870;4.316;2023-11-19T10:13:37;12.70;99.90
21787;DHT22;11055;50.870;4.316;2023-11-19T10:16:11;12.70;99.90
21787;DHT22;11055;50.870;4.316;2023-11-19T10:18:45;12.90;99.90
21787;DHT22;11055;50.870;4.316;2023-11-19T10:21:14;13.00;99.90
21787;DHT22;11055;50.870;4.316;2023-11-19T10:23:53;13.00;99.90
21787;DHT22;11055;50.870;4.316;2023-11-19T10:26:22;13.00;99.90
21787;DHT22;11055;50.870;4.316;2023-11-19T10:28:48;13.00;99.90
21787;DHT22;11055;50.870;4.316;2023-11-19T10:31:15;13.10;99.90
21787;DHT22;11055;50.870;4.316;2023-11-19T10:33:41;13.10;99.90
21787;DHT22;11055;50.870;4.316;2023-11-19T10:36:07;13.20;99.90
21787;DHT22;11055;50.870;4.316;2023-11-19T10:38:33;13.10;99.90
21787;DHT22;11055;50.870;4.316;2023-11-19T10:40:59;13.10;99.90
21787;DHT22;11055;50.870;4.316;2023-11-19T10:43:25;13.00;99.90
21787;DHT22;11055;50.870;4.316;2023-11-19T10:45:51;12.90;99.90
21787;DHT22;11055;50.870;4.316;2023-11-19T10:48:17;12.90;99.90
21787;DHT22;11055;50.870;4.316;2023-11-19T10:50:45;12.80;99.90
21787;DHT22;11055;50.870;4.316;2023-11-19T10:53:12;12.70;99.90
21787;DHT22;11055;50.870;4.316;2023-11-19T10:55:47;12.70;99.90
21787;DHT22;11055;50.870;4.316;2023-11-19T10:58:15;12.80;99.90
21787;DHT22;11055;50.870;4.316;2023-11-19T11:00:47;12.70;99.90
21787;DHT22;11055;50.870;4.316;2023-11-19T11:03:18;12.80;99.90
21787;DHT22;11055;50.870;4.316;2023-11-19T11:05:47;12.80;99.90
21787;DHT22;11055;50.870;4.316;2023-11-19T11:08:13;12.80;99.90
21787;DHT22;11055;50.870;4.316;2023-11-19T11:10:44;12.90;99.90
21787;DHT22;11055;50.870;4.316;2023-11-19T11:13:11;12.80;99.90
21787;DHT22;11055;50.870;4.316;2023-11-19T11:15:37;12.80;99.90
21787;DHT22;11055;50.870;4.316;2023-11-19T11:18:08;12.80;99.90
21787;DHT22;11055;50.870;4.316;2023-11-19T11:20:34;12.90;99.90
21787;DHT22;11055;50.870;4.316;2023-11-19T11:29:05;12.90;99.90
21787;DHT22;11055;50.870;4.316;2023-11-19T11:37:26;12.90;99.90
21787;DHT22;11055;50.870;4.316;2023-11-19T11:39:57;12.90;99.90
21787;DHT22;11055;50.870;4.316;2023-11-19T11:45:08;13.10;99.90
21787;DHT22;11055;50.870;4.316;2023-11-19T11:50:10;13.20;99.90
21787;DHT22;11055;50.870;4.316;2023-11-19T11:55:36;13.60;99.90
21787;DHT22;11055;50.870;4.316;2023-11-19T11:58:06;13.80;99.90
21787;DHT22;11055;50.870;4.316;2023-11-19T12:00:40;14.10;99.90
21787;DHT22;11055;50.870;4.316;2023-11-19T12:03:07;14.20;99.90
21787;DHT22;11055;50.870;4.316;2023-11-19T12:05:42;14.10;99.90
21787;DHT22;11055;50.870;4.316;2023-11-19T12:08:11;14.10;99.90
21787;DHT22;11055;50.870;4.316;2023-11-19T12:10:44;14.10;99.90
21787;DHT22;11055;50.870;4.316;2023-11-19T12:13:11;14.00;99.90
21787;DHT22;11055;50.870;4.316;2023-11-19T12:18:32;13.60;99.90
21787;DHT22;11055;50.870;4.316;2023-11-19T12:21:01;13.40;99.90
21787;DHT22;11055;50.870;4.316;2023-11-19T12:23:31;13.40;99.90
21787;DHT22;11055;50.870;4.316;2023-11-19T12:25:57;13.40;99.90
21787;DHT22;11055;50.870;4.316;2023-11-19T12:28:24;13.40;99.90
21787;DHT22;11055;50.870;4.316;2023-11-19T12:30:52;13.30;99.90
21787;DHT22;11055;50.870;4.316;2023-11-19T12:33:19;13.30;99.90
21787;DHT22;11055;50.870;4.316;2023-11-19T12:35:48;13.20;99.90
21787;DHT22;11055;50.870;4.316;2023-11-19T12:38:21;13.20;99.90
21787;DHT22;11055;50.870;4.316;2023-11-19T12:41:02;13.10;99.90
21787;DHT22;11055;50.870;4.316;2023-11-19T12:43:28;13.20;99.90
21787;DHT22;11055;50.870;4.316;2023-11-19T12:45:54;13.10;99.90
21787;DHT22;11055;50.870;4.316;2023-11-19T12:48:19;13.10;99.90
21787;DHT22;11055;50.870;4.316;2023-11-19T12:50:56;13.10;99.90
21787;DHT22;11055;50.870;4.316;2023-11-19T12:53:23;13.10;99.90
21787;DHT22;11055;50.870;4.316;2023-11-19T12:55:54;13.10;99.90
21787;DHT22;11055;50.870;4.316;2023-11-19T12:58:34;13.00;99.90
21787;DHT22;11055;50.870;4.316;2023-11-19T13:01:06;13.00;99.90
21787;DHT22;11055;50.870;4.316;2023-11-19T13:03:34;13.00;99.90
21787;DHT22;11055;50.870;4.316;2023-11-19T13:06:11;13.10;99.90
21787;DHT22;11055;50.870;4.316;2023-11-19T13:08:38;13.30;99.90
21787;DHT22;11055;50.870;4.316;2023-11-19T13:11:04;13.20;99.90
21787;DHT22;11055;50.870;4.316;2023-11-19T13:13:32;13.30;99.90
21787;DHT22;11055;50.870;4.316;2023-11-19T13:16:04;13.30;99.90
21787;DHT22;11055;50.870;4.316;2023-11-19T13:18:34;13.30;99.90
21787;DHT22;11055;50.870;4.316;2023-11-19T13:21:00;13.20;99.90
21787;DHT22;11055;50.870;4.316;2023-11-19T13:23:26;13.40;99.90
21787;DHT22;11055;50.870;4.316;2023-11-19T13:25:51;13.30;99.90
21787;DHT22;11055;50.870;4.316;2023-11-19T13:28:17;13.30;99.90
21787;DHT22;11055;50.870;4.316;2023-11-19T13:30:43;13.10;99.90
21787;DHT22;11055;50.870;4.316;2023-11-19T13:33:08;13.10;99.90
21787;DHT22;11055;50.870;4.316;2023-11-19T13:35:37;13.00;99.90
21787;DHT22;11055;50.870;4.316;2023-11-19T13:38:06;13.10;99.90
21787;DHT22;11055;50.870;4.316;2023-11-19T13:40:31;13.20;99.90
21787;DHT22;11055;50.870;4.316;2023-11-19T13:42:57;13.20;99.90
21787;DHT22;11055;50.870;4.316;2023-11-19T13:45:23;13.30;99.90
21787;DHT22;11055;50.870;4.316;2023-11-19T13:47:48;13.40;99.90
21787;DHT22;11055;50.870;4.316;2023-11-19T13:50:15;13.40;99.90
21787;DHT22;11055;50.870;4.316;2023-11-19T13:52:45;13.50;99.90
21787;DHT22;11055;50.870;4.316;2023-11-19T13:55:13;13.50;99.90
21787;DHT22;11055;50.870;4.316;2023-11-19T13:57:40;13.40;99.90
21787;DHT22;11055;50.870;4.316;2023-11-19T14:00:07;13.40;99.90
21787;DHT22;11055;50.870;4.316;2023-11-19T14:02:42;13.20;99.90
21787;DHT22;11055;50.870;4.316;2023-11-19T14:05:09;13.10;99.90
21787;DHT22;11055;50.870;4.316;2023-11-19T14:07:36;13.00;99.90
21787;DHT22;11055;50.870;4.316;2023-11-19T14:10:02;13.10;99.90
21787;DHT22;11055;50.870;4.316;2023-11-19T14:12:28;13.20;99.90
21787;DHT22;11055;50.870;4.316;2023-11-19T14:14:54;13.10;99.90
21787;DHT22;11055;50.870;4.316;2023-11-19T14:17:20;13.10;99.90
21787;DHT22;11055;50.870;4.316;2023-11-19T14:19:46;13.00;99.90
21787;DHT22;11055;50.870;4.316;2023-11-19T14:22:11;13.00;99.90
21787;DHT22;11055;50.870;4.316;2023-11-19T14:24:37;13.00;99.90
21787;DHT22;11055;50.870;4.316;2023-11-19T14:27:03;13.10;99.90
21787;DHT22;11055;50.870;4.316;2023-11-19T14:29:29;13.00;99.90
21787;DHT22;11055;50.870;4.316;2023-11-19T14:31:56;12.80;99.90
21787;DHT22;11055;50.870;4.316;2023-11-19T14:34:22;12.80;99.90
21787;DHT22;11055;50.870;4.316;2023-11-19T14:36:48;12.60;99.90
21787;DHT22;11055;50.870;4.316;2023-11-19T14:39:14;12.60;99.90
21787;DHT22;11055;50.870;4.316;2023-11-19T14:41:40;12.50;99.90
21787;DHT22;11055;50.870;4.316;2023-11-19T14:44:06;12.60;99.90
21787;DHT22;11055;50.870;4.316;2023-11-19T14:46:34;12.60;99.90
21787;DHT22;11055;50.870;4.316;2023-11-19T14:48:59;12.50;99.90
21787;DHT22;11055;50.870;4.316;2023-11-19T14:51:25;12.50;99.90
21787;DHT22;11055;50.870;4.316;2023-11-19T14:53:51;12.50;99.90
21787;DHT22;11055;50.870;4.316;2023-11-19T14:56:16;12.50;99.90
21787;DHT22;11055;50.870;4.316;2023-11-19T14:58:42;12.50;99.90
21787;DHT22;11055;50.870;4.316;2023-11-19T15:01:13;12.60;99.90
21787;DHT22;11055;50.870;4.316;2023-11-19T15:03:39;12.70;99.90
21787;DHT22;11055;50.870;4.316;2023-11-19T15:06:05;12.80;99.90
21787;DHT22;11055;50.870;4.316;2023-11-19T15:08:32;12.80;99.90
21787;DHT22;11055;50.870;4.316;2023-11-19T15:10:58;12.80;99.90
21787;DHT22;11055;50.870;4.316;2023-11-19T15:13:24;12.80;99.90
21787;DHT22;11055;50.870;4.316;2023-11-19T15:15:50;12.70;99.90
21787;DHT22;11055;50.870;4.316;2023-11-19T15:18:15;12.60;99.90
21787;DHT22;11055;50.870;4.316;2023-11-19T15:20:43;12.50;99.90
21787;DHT22;11055;50.870;4.316;2023-11-19T15:23:12;12.50;99.90
21787;DHT22;11055;50.870;4.316;2023-11-19T15:25:38;12.60;99.90
21787;DHT22;11055;50.870;4.316;2023-11-19T15:28:04;12.60;99.90
21787;DHT22;11055;50.870;4.316;2023-11-19T15:30:30;12.60;99.90
21787;DHT22;11055;50.870;4.316;2023-11-19T15:32:55;12.60;99.90
21787;DHT22;11055;50.870;4.316;2023-11-19T15:35:21;12.60;99.90
21787;DHT22;11055;50.870;4.316;2023-11-19T15:37:47;12.70;99.90
21787;DHT22;11055;50.870;4.316;2023-11-19T15:40:13;12.70;99.90
21787;DHT22;11055;50.870;4.316;2023-11-19T15:42:40;12.70;99.90
21787;DHT22;11055;50.870;4.316;2023-11-19T15:45:06;12.70;99.90
21787;DHT22;11055;50.870;4.316;2023-11-19T15:47:35;12.80;99.90
21787;DHT22;11055;50.870;4.316;2023-11-19T15:50:02;12.70;99.90
21787;DHT22;11055;50.870;4.316;2023-11-19T15:52:32;12.70;99.90